Time;durP1;ratioP1;P1;durP2;ratioP2;P2;SDS_P1;SDS_P2;PMS_P1;PMS_P2;Temp;Humidity;BMP_temperature;BMP_pressure;BME280_temperature;BME280_humidity;BME280_pressure;Samples;Min_cycle;Max_cycle;Signal;HPM_P1;HPM_P2
2022/01/09 00:00:29;;;;;;;4.90;2.25;;;;;;;3.38;100.00;94127.22;5069103;28;20537;-55
2022/01/09 00:02:57;;;;;;;5.70;2.60;;;;;;;3.34;100.00;94126.03;5059438;28;20093;-56
2022/01/09 00:05:25;;;;;;;5.35;2.92;;;;;;;3.31;100.00;94136.72;5064694;28;20577;-56
2022/01/09 00:07:53;;;;;;;7.70;2.92;;;;;;;3.21;100.00;94140.53;5062043;28;20047;-55
2022/01/09 00:10:20;;;;;;;5.00;2.35;;;;;;;3.24;100.00;94137.56;5063772;28;20456;-55
2022/01/09 00:12:48;;;;;;;8.98;3.20;;;;;;;3.15;100.00;94138.75;5068937;28;20055;-54
2022/01/09 00:15:15;;;;;;;6.18;3.00;;;;;;;3.15;100.00;94138.75;5066950;28;20044;-55
2022/01/09 00:17:42;;;;;;;7.68;3.88;;;;;;;3.13;100.00;94140.72;5065841;28;20045;-55
2022/01/09 00:20:13;;;;;;;7.57;2.47;;;;;;;3.10;100.00;94142.91;5066486;28;20044;-53
2022/01/09 00:22:46;;;;;;;7.40;3.08;;;;;;;3.07;100.00;94141.53;5067991;28;20429;-54
2022/01/09 00:25:14;;;;;;;8.93;3.42;;;;;;;3.10;100.00;94143.72;5070154;28;20051;-56
2022/01/09 00:27:42;;;;;;;5.57;2.30;;;;;;;3.11;100.00;94149.66;5067081;28;20043;-52
2022/01/09 00:30:12;;;;;;;8.35;3.13;;;;;;;3.11;100.00;94142.72;5065745;28;20553;-54
2022/01/09 00:32:40;;;;;;;4.00;2.65;;;;;;;3.17;100.00;94146.25;5065245;28;20051;-54
2022/01/09 00:35:08;;;;;;;5.70;2.45;;;;;;;3.28;100.00;94147.41;5063617;28;20459;-55
2022/01/09 00:37:35;;;;;;;8.07;3.85;;;;;;;3.37;100.00;94146.25;5064355;28;20040;-53
2022/01/09 00:40:04;;;;;;;5.03;2.25;;;;;;;3.37;100.00;94128.22;5069999;28;20041;-54
2022/01/09 00:42:31;;;;;;;8.90;3.13;;;;;;;3.43;100.00;94135.13;5068376;28;20047;-52
2022/01/09 00:44:58;;;;;;;8.30;2.85;;;;;;;3.44;100.00;94127.19;5070151;28;20397;-54
2022/01/09 00:47:25;;;;;;;5.38;1.83;;;;;;;3.53;100.00;94130.34;5073110;28;20491;-54
2022/01/09 00:49:52;;;;;;;4.75;2.53;;;;;;;3.56;100.00;94137.63;5072595;28;20470;-54
2022/01/09 00:52:19;;;;;;;4.72;2.45;;;;;;;3.62;100.00;94128.31;5071487;28;20532;-54
2022/01/09 00:54:46;;;;;;;6.25;3.15;;;;;;;3.66;100.00;94133.84;5072900;28;20047;-55
2022/01/09 00:57:12;;;;;;;5.00;2.38;;;;;;;3.66;100.00;94118.41;5068864;28;20055;-55
2022/01/09 00:59:39;;;;;;;2.42;1.65;;;;;;;3.75;100.00;94115.38;5075739;28;20047;-53
2022/01/09 01:02:06;;;;;;;5.63;2.22;;;;;;;3.76;100.00;94118.72;5077159;28;20040;-52
2022/01/09 01:04:33;;;;;;;5.43;2.40;;;;;;;3.80;100.00;94119.91;5069048;28;20119;-55
2022/01/09 01:07:00;;;;;;;8.95;2.67;;;;;;;3.89;100.00;94123.84;5073147;28;20044;-54
2022/01/09 01:09:30;;;;;;;11.73;3.30;;;;;;;3.88;100.00;94106.78;5074251;28;20049;-53
2022/01/09 01:11:59;;;;;;;8.18;2.65;;;;;;;3.90;100.00;94109.16;5074125;28;20769;-54
2022/01/09 01:14:27;;;;;;;5.43;2.50;;;;;;;3.87;100.00;94105.22;5072560;28;20047;-54
2022/01/09 01:16:55;;;;;;;4.47;2.35;;;;;;;3.82;100.00;94107.63;5071072;28;20378;-55
2022/01/09 01:19:22;;;;;;;5.32;2.50;;;;;;;3.90;100.00;94099.63;5077252;28;20119;-55
2022/01/09 01:21:49;;;;;;;4.00;1.95;;;;;;;3.91;100.00;94098.66;5077054;28;20158;-53
2022/01/09 01:24:18;;;;;;;4.70;2.20;;;;;;;3.92;100.00;94091.69;5071968;28;20521;-53
2022/01/09 01:26:45;;;;;;;5.13;2.03;;;;;;;3.93;100.00;94099.22;5075748;28;20512;-54
2022/01/09 01:29:12;;;;;;;7.88;2.60;;;;;;;3.96;100.00;94098.81;5076728;28;20047;-54
2022/01/09 01:31:39;;;;;;;4.47;1.83;;;;;;;3.95;100.00;94102.38;5073056;28;20051;-54
2022/01/09 01:34:06;;;;;;;2.70;1.75;;;;;;;3.90;100.00;94089.34;5076460;28;20505;-54
2022/01/09 01:36:33;;;;;;;5.00;1.38;;;;;;;3.98;100.00;94093.44;5078546;28;20040;-53
2022/01/09 01:39:00;;;;;;;3.50;1.92;;;;;;;3.97;100.00;94092.66;5079695;28;20047;-54
2022/01/09 01:41:26;;;;;;;3.85;2.30;;;;;;;3.97;100.00;94084.94;5074928;28;20041;-55
2022/01/09 01:43:53;;;;;;;4.60;3.22;;;;;;;3.94;100.00;94069.09;5075411;28;20425;-55
2022/01/09 01:46:20;;;;;;;3.78;1.48;;;;;;;3.85;100.00;94055.66;5076545;28;20048;-55
2022/01/09 01:48:47;;;;;;;4.57;2.17;;;;;;;3.81;100.00;94059.66;5076348;28;20067;-53
2022/01/09 01:51:14;;;;;;;6.40;2.05;;;;;;;3.76;100.00;94056.91;5078726;28;20040;-55
2022/01/09 01:53:41;;;;;;;3.80;1.90;;;;;;;3.70;100.00;94058.53;5072589;28;20036;-55
2022/01/09 01:56:12;;;;;;;5.05;2.50;;;;;;;3.61;100.00;94065.72;5072350;28;20051;-53
2022/01/09 01:58:39;;;;;;;5.15;2.75;;;;;;;3.60;100.00;94058.19;5074627;28;20044;-54
2022/01/09 02:01:06;;;;;;;5.53;2.53;;;;;;;3.52;100.00;94051.50;5075717;28;20544;-55
2022/01/09 02:03:33;;;;;;;4.47;2.30;;;;;;;3.48;100.00;94050.34;5073951;28;20041;-54
2022/01/09 02:06:00;;;;;;;8.13;2.30;;;;;;;3.36;100.00;94036.53;5079427;28;20054;-55
2022/01/09 02:08:27;;;;;;;4.70;2.35;;;;;;;3.33;100.00;94042.91;5073685;28;20041;-54
2022/01/09 02:10:54;;;;;;;8.75;2.47;;;;;;;3.31;100.00;94041.50;5080519;28;20470;-55
2022/01/09 02:13:21;;;;;;;4.78;2.42;;;;;;;3.24;100.00;94037.19;5073139;28;20072;-54
2022/01/09 02:15:48;;;;;;;5.78;2.97;;;;;;;3.23;100.00;94048.47;5076542;28;20036;-53
2022/01/09 02:18:21;;;;;;;9.50;3.00;;;;;;;3.16;100.00;94042.56;5072537;28;20063;-53
2022/01/09 02:20:50;;;;;;;4.80;2.25;;;;;;;3.09;100.00;94041.78;5074210;28;21788;-55
2022/01/09 02:23:18;;;;;;;11.65;3.60;;;;;;;3.07;100.00;94038.63;5073915;28;20042;-54
2022/01/09 02:25:47;;;;;;;6.95;3.90;;;;;;;3.08;100.00;94045.38;5071558;28;20414;-54
2022/01/09 02:28:16;;;;;;;5.05;2.75;;;;;;;3.01;100.00;94040.22;5072366;28;20545;-55
2022/01/09 02:30:44;;;;;;;6.38;3.50;;;;;;;2.96;100.00;94026.41;5075960;28;20430;-54
2022/01/09 02:33:17;;;;;;;8.48;3.63;;;;;;;2.87;100.00;94024.03;5073114;28;20040;-55
2022/01/09 02:35:48;;;;;;;6.60;3.15;;;;;;;2.81;100.00;94006.84;5073056;28;20044;-55
2022/01/09 02:38:15;;;;;;;6.38;2.63;;;;;;;2.74;100.00;94002.72;5077432;28;20048;-54
2022/01/09 02:40:41;;;;;;;3.13;2.22;;;;;;;2.71;100.00;93998.78;5069934;28;20041;-55
2022/01/09 02:43:08;;;;;;;5.55;2.60;;;;;;;2.66;100.00;93996.00;5071416;28;20391;-54
2022/01/09 02:45:36;;;;;;;5.20;2.70;;;;;;;2.62;100.00;93989.69;5066534;28;20044;-54
2022/01/09 02:48:04;;;;;;;5.10;2.05;;;;;;;2.59;100.00;93984.97;5069729;28;20040;-53
2022/01/09 02:50:36;;;;;;;4.28;2.15;;;;;;;2.52;100.00;93989.31;5068250;28;20036;-53
2022/01/09 02:53:14;;;;;;;4.97;2.25;;;;;;;2.47;100.00;93983.00;5069195;28;20044;-53
2022/01/09 02:55:42;;;;;;;4.43;2.25;;;;;;;2.39;100.00;93965.22;5074361;28;20048;-53
2022/01/09 02:58:09;;;;;;;3.15;1.98;;;;;;;2.40;100.00;93971.19;5075409;28;20040;-53
2022/01/09 03:00:39;;;;;;;3.63;2.00;;;;;;;2.43;100.00;93979.28;5065671;28;20492;-52
2022/01/09 03:03:06;;;;;;;5.80;2.70;;;;;;;2.44;100.00;93980.84;5070961;28;20054;-55
2022/01/09 03:05:33;;;;;;;5.00;2.20;;;;;;;2.45;100.00;93974.72;5074107;28;20070;-55
2022/01/09 03:08:01;;;;;;;3.08;2.05;;;;;;;2.38;100.00;93963.66;5070972;28;20043;-53
2022/01/09 03:10:27;;;;;;;7.13;2.40;;;;;;;2.33;100.00;93970.41;5075333;28;20040;-54
2022/01/09 03:12:56;;;;;;;6.07;2.88;;;;;;;2.32;100.00;93969.59;5030142;28;1194847;-54
2022/01/09 03:15:24;;;;;;;4.13;2.03;;;;;;;2.31;100.00;93973.16;5074260;28;20066;-53
2022/01/09 03:17:52;;;;;;;3.88;2.33;;;;;;;2.29;100.00;93975.94;5073745;28;20036;-54
2022/01/09 03:20:23;;;;;;;4.28;2.25;;;;;;;2.25;100.00;93963.66;5072985;28;20418;-53
2022/01/09 03:22:50;;;;;;;3.80;2.35;;;;;;;2.24;100.00;93967.25;5075936;28;20493;-56
2022/01/09 03:25:17;;;;;;;6.15;3.00;;;;;;;2.24;100.00;93962.09;5071443;28;20063;-55
2022/01/09 03:27:45;;;;;;;5.25;2.47;;;;;;;2.21;100.00;93957.34;5074652;28;20421;-55
2022/01/09 03:30:12;;;;;;;5.15;2.67;;;;;;;2.19;100.00;93954.22;5073366;28;20054;-55
2022/01/09 03:32:41;;;;;;;4.25;2.40;;;;;;;2.19;100.00;93955.00;5071636;28;20047;-54
2022/01/09 03:35:11;;;;;;;6.35;2.70;;;;;;;2.20;100.00;93958.38;5072920;28;20119;-54
2022/01/09 03:37:40;;;;;;;16.10;2.40;;;;;;;2.21;100.00;93954.78;5068956;28;20056;-54
2022/01/09 03:40:10;;;;;;;6.10;2.75;;;;;;;2.16;100.00;93957.16;5070538;28;20040;-55
2022/01/09 03:42:37;;;;;;;5.10;2.50;;;;;;;2.16;100.00;93959.72;5071391;28;20093;-55
2022/01/09 03:45:06;;;;;;;5.75;2.97;;;;;;;2.22;100.00;93958.94;5073832;28;20050;-55
2022/01/09 03:47:33;;;;;;;2.97;2.08;;;;;;;2.18;100.00;93962.88;5070506;28;20132;-56
2022/01/09 03:49:59;;;;;;;5.93;2.63;;;;;;;2.14;100.00;93956.59;5077391;28;20040;-53
2022/01/09 03:52:27;;;;;;;8.90;3.00;;;;;;;2.14;100.00;93949.66;5073757;28;20416;-55
2022/01/09 03:54:55;;;;;;;7.30;2.50;;;;;;;2.13;100.00;93939.59;5074704;28;20594;-53
2022/01/09 03:57:22;;;;;;;4.38;2.53;;;;;;;2.07;100.00;93936.84;5073353;28;20040;-55
2022/01/09 03:59:49;;;;;;;6.95;3.22;;;;;;;2.12;100.00;93943.16;5071376;28;20044;-55
2022/01/09 04:02:16;;;;;;;7.15;2.83;;;;;;;2.14;100.00;93941.16;5071894;28;20046;-54
2022/01/09 04:04:43;;;;;;;11.00;2.97;;;;;;;2.17;100.00;93941.56;5078906;28;20452;-56
2022/01/09 04:07:11;;;;;;;7.85;3.50;;;;;;;2.18;100.00;93938.00;5074693;28;20040;-55
2022/01/09 04:09:43;;;;;;;4.53;2.47;;;;;;;2.23;100.00;93942.53;5069536;28;20136;-55
2022/01/09 04:12:17;;;;;;;7.25;3.20;;;;;;;2.23;100.00;93939.97;5071146;28;20510;-55
2022/01/09 04:14:47;;;;;;;4.50;2.22;;;;;;;2.35;100.00;93953.78;5070169;28;20143;-56
2022/01/09 04:17:27;;;;;;;5.13;2.50;;;;;;;2.46;100.00;93955.72;5068716;28;20424;-55
2022/01/09 04:19:54;;;;;;;6.28;2.92;;;;;;;2.53;100.00;93962.63;5068649;28;20041;-56
2022/01/09 04:22:21;;;;;;;7.43;3.38;;;;;;;2.60;100.00;93956.47;5071995;28;20546;-54
2022/01/09 04:24:48;;;;;;;7.65;2.70;;;;;;;2.71;100.00;93957.63;5071549;28;20040;-55
2022/01/09 04:27:15;;;;;;;7.18;3.65;;;;;;;2.80;100.00;93956.41;5074474;28;20049;-55
2022/01/09 04:29:42;;;;;;;6.63;3.63;;;;;;;2.89;100.00;93951.03;5074949;28;20044;-55
2022/01/09 04:32:09;;;;;;;8.63;3.30;;;;;;;2.99;100.00;93954.75;5076829;28;20056;-54
2022/01/09 04:34:35;;;;;;;8.70;2.63;;;;;;;3.04;100.00;93956.69;5074196;28;20051;-54
2022/01/09 04:37:02;;;;;;;7.45;3.47;;;;;;;3.03;100.00;93944.84;5073346;28;20126;-54
2022/01/09 04:39:30;;;;;;;8.05;3.78;;;;;;;3.14;100.00;93945.97;5065814;28;20044;-55
2022/01/09 04:41:57;;;;;;;10.13;3.50;;;;;;;3.20;100.00;93940.00;5065056;28;20040;-55
2022/01/09 04:44:24;;;;;;;6.35;3.35;;;;;;;3.22;100.00;93943.16;5076717;28;20047;-55
2022/01/09 04:46:57;;;;;;;6.03;2.78;;;;;;;3.24;100.00;93951.44;5071272;28;20478;-55
2022/01/09 04:49:28;;;;;;;6.13;2.75;;;;;;;3.30;100.00;93950.63;5070295;28;20044;-54
2022/01/09 04:51:56;;;;;;;4.70;2.50;;;;;;;3.27;100.00;93942.53;5074125;28;20055;-53
2022/01/09 04:54:23;;;;;;;9.95;3.28;;;;;;;3.40;100.00;93950.16;5070853;28;20493;-55
2022/01/09 04:56:50;;;;;;;6.25;3.22;;;;;;;3.45;100.00;93947.78;5076099;28;20040;-54
2022/01/09 04:59:17;;;;;;;5.68;2.58;;;;;;;3.48;100.00;93947.34;5069057;28;20115;-54
2022/01/09 05:01:44;;;;;;;4.45;2.53;;;;;;;3.54;100.00;93941.38;5074510;28;20044;-55
2022/01/09 05:04:10;;;;;;;5.75;2.67;;;;;;;3.58;100.00;93936.59;5073300;28;20044;-55
2022/01/09 05:06:38;;;;;;;5.40;2.03;;;;;;;3.51;100.00;93923.78;5067654;28;20051;-53
2022/01/09 05:09:04;;;;;;;5.15;2.80;;;;;;;3.61;100.00;93936.97;5076966;28;20535;-54
2022/01/09 05:11:31;;;;;;;9.23;3.65;;;;;;;3.65;100.00;93932.19;5072538;28;20067;-55
2022/01/09 05:13:58;;;;;;;10.75;3.22;;;;;;;3.63;100.00;93926.47;5067507;28;20070;-55
2022/01/09 05:16:25;;;;;;;10.07;3.10;;;;;;;3.60;100.00;93919.94;5073022;28;20514;-55
2022/01/09 05:18:55;;;;;;;7.28;3.08;;;;;;;3.67;100.00;93929.41;5075614;28;20044;-55
2022/01/09 05:21:21;;;;;;;7.03;2.72;;;;;;;3.66;100.00;93938.13;5072756;28;20422;-55
2022/01/09 05:23:49;;;;;;;6.68;2.83;;;;;;;3.66;100.00;93938.13;5070299;28;20114;-54
2022/01/09 05:26:16;;;;;;;6.75;3.13;;;;;;;3.67;100.00;93929.41;5066207;28;20056;-53
2022/01/09 05:28:43;;;;;;;7.72;3.85;;;;;;;3.71;100.00;93927.97;5069964;28;20308;-55
2022/01/09 05:31:09;;;;;;;6.35;3.88;;;;;;;3.77;100.00;93934.88;5075272;28;20040;-54
2022/01/09 05:33:37;;;;;;;9.00;3.92;;;;;;;3.73;100.00;93918.28;5076922;28;20037;-55
2022/01/09 05:36:04;;;;;;;7.53;3.60;;;;;;;3.78;100.00;93931.28;5071886;28;20090;-55
2022/01/09 05:38:32;;;;;;;8.38;3.58;;;;;;;3.74;100.00;93909.53;5073119;28;20040;-54
2022/01/09 05:40:59;;;;;;;8.80;3.17;;;;;;;3.80;100.00;93919.00;5071358;28;20032;-55
2022/01/09 05:43:26;;;;;;;8.77;3.88;;;;;;;3.80;100.00;93919.00;5076581;28;20078;-56
2022/01/09 05:45:53;;;;;;;6.15;3.15;;;;;;;3.83;100.00;93913.41;5069414;28;20505;-56
2022/01/09 05:48:19;;;;;;;5.78;3.15;;;;;;;3.81;100.00;93915.41;5067893;28;20047;-55
2022/01/09 05:50:46;;;;;;;5.78;3.70;;;;;;;3.83;100.00;93913.41;5073570;28;20413;-55
2022/01/09 05:53:14;;;;;;;7.43;3.00;;;;;;;3.80;100.00;93919.00;5072803;28;20044;-55
2022/01/09 05:55:40;;;;;;;7.80;4.00;;;;;;;3.84;100.00;93920.16;5070828;28;20043;-56
2022/01/09 05:58:07;;;;;;;5.80;3.28;;;;;;;3.82;100.00;93927.31;5070807;28;20387;-55
2022/01/09 06:00:34;;;;;;;6.88;3.75;;;;;;;3.90;100.00;93924.44;5072943;28;20044;-55
2022/01/09 06:03:03;;;;;;;8.48;3.30;;;;;;;3.80;100.00;93913.84;5069709;28;20044;-54
2022/01/09 06:05:30;;;;;;;5.63;3.92;;;;;;;3.95;100.00;93924.63;5076642;28;20545;-56
2022/01/09 06:07:57;;;;;;;7.05;3.47;;;;;;;3.96;100.00;93913.31;5076908;28;20052;-55
2022/01/09 06:10:24;;;;;;;7.43;2.90;;;;;;;3.95;100.00;93905.78;5075471;28;20032;-55
2022/01/09 06:12:51;;;;;;;9.13;3.60;;;;;;;4.10;100.00;93915.75;5074103;28;20562;-55
2022/01/09 06:15:17;;;;;;;7.28;3.60;;;;;;;4.11;100.00;93909.63;5076797;28;20048;-55
2022/01/09 06:17:45;;;;;;;5.88;3.53;;;;;;;4.12;100.00;93916.34;5074120;28;20119;-55
2022/01/09 06:20:14;;;;;;;15.27;7.57;;;;;;;4.14;100.00;93924.63;5072072;28;20040;-56
2022/01/09 06:22:43;;;;;;;22.95;11.60;;;;;;;4.17;100.00;93924.22;5075872;28;20043;-56
2022/01/09 06:25:10;;;;;;;33.90;17.23;;;;;;;4.17;100.00;93926.78;5067197;28;20052;-56
2022/01/09 06:27:38;;;;;;;28.88;16.83;;;;;;;4.25;100.00;93923.97;5059131;28;20047;-54
2022/01/09 06:30:06;;;;;;;17.75;11.25;;;;;;;4.30;100.00;93918.91;5063851;28;20136;-54
2022/01/09 06:32:33;;;;;;;13.05;8.57;;;;;;;4.13;100.00;93898.09;5064799;28;20032;-55
2022/01/09 06:35:00;;;;;;;11.20;6.28;;;;;;;4.28;100.00;93915.00;5066308;28;20041;-54
2022/01/09 06:37:27;;;;;;;11.57;4.93;;;;;;;4.29;100.00;93925.09;5065469;28;20055;-56
2022/01/09 06:39:54;;;;;;;8.75;5.03;;;;;;;4.25;100.00;93916.22;5063578;28;20040;-55
2022/01/09 06:42:20;;;;;;;6.82;4.15;;;;;;;4.31;100.00;93925.66;5066335;28;20045;-55
2022/01/09 06:44:47;;;;;;;8.77;4.78;;;;;;;4.34;100.00;93925.25;5066261;28;20048;-54
2022/01/09 06:47:14;;;;;;;8.07;4.43;;;;;;;4.38;100.00;93921.22;5065304;28;20036;-55
2022/01/09 06:49:41;;;;;;;8.00;3.78;;;;;;;4.41;100.00;93914.84;5065955;28;20079;-55
2022/01/09 06:52:08;;;;;;;6.88;3.42;;;;;;;4.46;100.00;93919.38;5064212;28;20045;-54
2022/01/09 06:54:35;;;;;;;10.63;4.25;;;;;;;4.54;100.00;93927.63;5065115;28;20525;-54
2022/01/09 06:57:02;;;;;;;6.53;3.03;;;;;;;4.47;100.00;93919.16;5062630;28;20044;-55
2022/01/09 06:59:29;;;;;;;8.73;4.13;;;;;;;4.56;100.00;93922.25;5063835;28;20044;-55
2022/01/09 07:01:56;;;;;;;11.70;3.30;;;;;;;4.65;100.00;93922.75;5065988;28;20056;-56
2022/01/09 07:04:23;;;;;;;7.05;2.83;;;;;;;4.67;100.00;93924.09;5065004;28;20048;-55
2022/01/09 07:06:50;;;;;;;7.38;3.25;;;;;;;4.73;100.00;93922.44;5064490;28;20459;-55
2022/01/09 07:09:17;;;;;;;7.95;3.10;;;;;;;4.77;100.00;93919.22;5066505;28;20055;-55
2022/01/09 07:11:43;;;;;;;4.55;2.85;;;;;;;4.84;100.00;93923.50;5065564;28;21084;-55
2022/01/09 07:14:11;;;;;;;6.30;3.28;;;;;;;4.83;100.00;93916.78;5063010;28;20469;-55
2022/01/09 07:16:38;;;;;;;10.10;4.18;;;;;;;4.90;100.00;93922.66;5062739;28;20048;-55
2022/01/09 07:19:05;;;;;;;7.57;4.25;;;;;;;4.91;100.00;93921.63;5063709;28;20036;-55
2022/01/09 07:21:32;;;;;;;24.33;15.13;;;;;;;4.97;100.00;93928.53;5063771;28;20466;-55
2022/01/09 07:23:59;;;;;;;13.48;7.53;;;;;;;5.04;100.00;93918.91;5066119;28;20079;-55
2022/01/09 07:26:30;;;;;;;6.85;4.10;;;;;;;5.14;100.00;93924.31;5063171;28;20048;-53
2022/01/09 07:28:57;;;;;;;7.60;4.30;;;;;;;5.24;100.00;93923.00;5064307;28;20045;-56
2022/01/09 07:31:24;;;;;;;5.85;3.00;;;;;;;5.34;100.00;93931.78;5064351;28;20047;-56
2022/01/09 07:33:50;;;;;;;5.60;3.75;;;;;;;5.43;100.00;93932.25;5062957;28;20045;-55
2022/01/09 07:36:19;;;;;;;10.05;4.30;;;;;;;5.58;100.00;93943.97;5064390;28;20051;-55
2022/01/09 07:38:46;;;;;;;8.50;4.32;;;;;;;5.66;100.00;93935.91;5063884;28;20131;-54
2022/01/09 07:41:14;;;;;;;10.90;5.15;;;;;;;5.65;100.00;93934.31;5063320;28;20043;-56
2022/01/09 07:43:42;;;;;;;11.40;5.28;;;;;;;5.62;100.00;93933.00;5063407;28;20049;-56
2022/01/09 07:46:09;;;;;;;13.88;8.45;;;;;;;5.62;100.00;93932.19;5062892;28;20044;-55
2022/01/09 07:48:37;;;;;;;13.05;6.00;;;;;;;5.64;100.00;93927.59;5063539;28;20888;-56
2022/01/09 07:51:04;;;;;;;19.08;7.32;;;;;;;5.66;100.00;93930.75;5061474;28;20041;-56
2022/01/09 07:53:31;;;;;;;10.55;4.88;;;;;;;5.58;100.00;93912.97;5065183;28;21842;-55
2022/01/09 07:56:00;;;;;;;10.98;5.00;;;;;;;5.72;100.00;93914.34;5070704;28;20102;-56
2022/01/09 07:58:27;;;;;;;8.23;3.88;;;;;;;5.73;100.00;93911.53;5072089;28;20048;-56
2022/01/09 08:00:54;;;;;;;16.20;7.20;;;;;;;5.77;100.00;93916.28;5072021;28;20036;-55
2022/01/09 08:03:21;;;;;;;10.45;5.85;;;;;;;5.76;100.00;93907.72;5069375;28;20094;-54
2022/01/09 08:05:48;;;;;;;11.68;5.65;;;;;;;5.91;100.00;93913.25;5068977;28;20049;-55
2022/01/09 08:08:15;;;;;;;13.10;5.03;;;;;;;6.03;100.00;93908.13;5074744;28;20047;-55
2022/01/09 08:10:42;;;;;;;10.32;5.45;;;;;;;6.13;100.00;93910.13;5060775;28;20059;-55
2022/01/09 08:13:09;;;;;;;9.02;4.25;;;;;;;6.21;100.00;93902.06;5064961;28;20512;-54
2022/01/09 08:15:36;;;;;;;9.40;4.65;;;;;;;6.35;100.00;93907.75;5073967;28;20047;-55
2022/01/09 08:18:03;;;;;;;9.73;6.00;;;;;;;6.39;100.00;93895.97;5068835;28;20043;-54
2022/01/09 08:20:31;;;;;;;8.07;3.22;;;;;;;6.45;100.00;93891.69;5078505;28;20588;-56
2022/01/09 08:22:59;;;;;;;7.30;3.55;;;;;;;6.58;100.00;93891.41;5060513;28;20052;-55
2022/01/09 08:25:26;;;;;;;7.65;3.40;;;;;;;6.72;100.00;93885.97;5063794;28;20539;-54
2022/01/09 08:27:53;;;;;;;6.57;3.38;;;;;;;6.87;100.00;93899.22;5063533;28;20501;-55
2022/01/09 08:30:20;;;;;;;10.02;4.75;;;;;;;6.87;100.00;93888.84;5062640;28;20044;-56
2022/01/09 08:32:49;;;;;;;7.68;3.65;;;;;;;6.93;99.06;93893.09;5064980;28;20430;-54
2022/01/09 08:35:16;;;;;;;6.35;3.50;;;;;;;6.85;98.76;93881.31;5073517;28;20044;-54
2022/01/09 08:37:44;;;;;;;8.27;4.15;;;;;;;6.89;98.72;93889.41;5067451;28;20036;-55
2022/01/09 08:40:13;;;;;;;8.15;3.63;;;;;;;6.79;99.18;93876.28;5063149;28;20083;-55
2022/01/09 08:42:44;;;;;;;8.20;5.15;;;;;;;6.82;98.94;93881.78;5062002;28;20469;-54
2022/01/09 08:45:11;;;;;;;10.70;4.00;;;;;;;6.81;99.99;93876.84;5064472;28;20060;-54
2022/01/09 08:47:38;;;;;;;8.40;3.25;;;;;;;6.85;98.78;93880.53;5065302;28;20040;-55
2022/01/09 08:50:06;;;;;;;7.32;3.78;;;;;;;6.91;99.15;93874.44;5072239;28;20062;-53
2022/01/09 08:52:34;;;;;;;5.22;2.97;;;;;;;7.00;98.59;93867.88;5066566;28;20479;-54
2022/01/09 08:55:03;;;;;;;6.90;3.05;;;;;;;7.11;98.29;93878.41;5069734;28;20622;-54
2022/01/09 08:57:30;;;;;;;9.07;3.80;;;;;;;7.17;97.23;93874.91;5070043;28;20051;-55
2022/01/09 08:59:56;;;;;;;8.50;5.18;;;;;;;7.20;97.55;93871.84;5065820;28;20043;-53
2022/01/09 09:02:23;;;;;;;21.33;12.02;;;;;;;7.30;96.66;93869.44;5071695;28;20061;-52
2022/01/09 09:04:51;;;;;;;25.65;13.93;;;;;;;7.44;96.98;93873.28;5072320;28;20056;-54
2022/01/09 09:07:24;;;;;;;12.70;7.05;;;;;;;7.53;96.35;93865.13;5069549;28;20051;-55
2022/01/09 09:09:52;;;;;;;6.53;4.33;;;;;;;7.64;95.22;93866.88;5074408;28;20046;-54
2022/01/09 09:12:20;;;;;;;12.57;5.03;;;;;;;7.68;93.81;93857.59;5074136;28;20465;-54
2022/01/09 09:14:48;;;;;;;8.32;4.32;;;;;;;7.64;93.32;93857.28;5071912;28;20047;-53
2022/01/09 09:17:15;;;;;;;5.30;3.80;;;;;;;7.60;93.02;93855.41;5068919;28;20650;-55
2022/01/09 09:19:42;;;;;;;7.63;3.42;;;;;;;7.55;93.33;93853.50;5064816;28;20040;-55
2022/01/09 09:22:09;;;;;;;7.13;3.05;;;;;;;7.57;93.71;93850.69;5063166;28;20044;-55
2022/01/09 09:24:37;;;;;;;6.57;3.05;;;;;;;7.67;93.69;93840.50;5069185;28;20037;-56
2022/01/09 09:27:05;;;;;;;5.50;2.90;;;;;;;7.84;93.37;93830.88;5056998;28;20063;-54
2022/01/09 09:29:32;;;;;;;13.13;3.63;;;;;;;8.18;94.06;93824.84;5060085;28;20424;-56
2022/01/09 09:31:59;;;;;;;6.82;3.65;;;;;;;8.43;92.48;93811.44;5062381;28;20047;-56
2022/01/09 09:34:26;;;;;;;5.82;2.85;;;;;;;8.58;90.86;93813.41;5064099;28;20040;-55
2022/01/09 09:36:53;;;;;;;25.42;14.25;;;;;;;8.71;90.82;93814.84;5057901;28;20063;-56
2022/01/09 09:39:20;;;;;;;21.70;10.90;;;;;;;8.84;90.07;93811.88;5062026;28;20055;-54
2022/01/09 09:41:48;;;;;;;8.52;3.83;;;;;;;8.91;89.56;93806.47;5064401;28;20552;-56
2022/01/09 09:44:14;;;;;;;11.85;4.05;;;;;;;8.88;88.73;93792.19;5068693;28;20438;-55
2022/01/09 09:46:48;;;;;;;18.00;8.00;;;;;;;8.66;89.03;93799.19;5072976;28;20052;-56
2022/01/09 09:49:16;;;;;;;11.50;5.57;;;;;;;8.69;89.73;93788.34;5078613;28;20048;-55
2022/01/09 09:51:49;;;;;;;7.30;3.17;;;;;;;8.56;89.73;93779.91;5075180;28;20051;-55
2022/01/09 09:54:16;;;;;;;7.78;3.80;;;;;;;8.45;90.00;93778.22;5076777;28;20514;-55
2022/01/09 09:56:43;;;;;;;7.85;3.83;;;;;;;8.33;89.31;93774.94;5077440;28;20095;-56
2022/01/09 09:59:09;;;;;;;4.70;2.83;;;;;;;8.18;90.17;93780.75;5067611;28;20040;-54
2022/01/09 10:01:41;;;;;;;7.88;3.70;;;;;;;7.98;91.00;93773.50;5072310;28;20578;-56
2022/01/09 10:04:09;;;;;;;9.52;4.00;;;;;;;7.98;91.49;93774.28;5070174;28;20055;-56
2022/01/09 10:06:41;;;;;;;10.68;4.53;;;;;;;7.94;91.72;93782.75;5064233;28;20511;-54
2022/01/09 10:09:23;;;;;;;9.02;4.90;;;;;;;7.93;91.50;93776.03;5062641;28;20151;-56
2022/01/09 10:11:53;;;;;;;6.00;3.22;;;;;;;7.91;91.76;93778.06;5069881;28;20044;-53
2022/01/09 10:14:27;;;;;;;6.97;3.45;;;;;;;7.74;92.46;93760.75;5072073;28;20505;-55
2022/01/09 10:17:13;;;;;;;7.70;5.10;;;;;;;7.85;92.19;93774.63;5068754;28;20044;-52
2022/01/09 10:19:56;;;;;;;6.85;4.07;;;;;;;7.77;92.59;93768.03;5078478;28;20142;-55
2022/01/09 10:22:28;;;;;;;10.93;5.55;;;;;;;7.96;92.86;93775.53;5073544;28;20047;-55
2022/01/09 10:24:56;;;;;;;10.52;4.07;;;;;;;8.00;92.10;93771.44;5078143;28;20032;-56
2022/01/09 10:27:30;;;;;;;9.52;5.03;;;;;;;8.05;91.43;93781.91;5074519;28;20048;-55
2022/01/09 10:29:57;;;;;;;9.13;4.72;;;;;;;8.14;91.10;93783.03;5073669;28;20044;-53
2022/01/09 10:32:28;;;;;;;9.85;5.57;;;;;;;8.13;91.58;93768.50;5073320;28;20127;-54
2022/01/09 10:35:15;;;;;;;12.18;6.90;;;;;;;8.18;91.77;93768.56;5077134;28;22001;-55
2022/01/09 10:37:44;;;;;;;8.50;4.43;;;;;;;8.20;90.77;93758.72;5069794;28;20044;-56
2022/01/09 10:40:20;;;;;;;8.48;4.40;;;;;;;8.09;91.21;93749.25;5075883;28;20059;-56
2022/01/09 10:43:08;;;;;;;9.02;4.90;;;;;;;8.34;91.34;93755.78;5072138;28;20041;-55
2022/01/09 10:45:41;;;;;;;9.07;4.57;;;;;;;8.39;90.56;93748.81;5077445;28;20036;-54
2022/01/09 10:48:17;;;;;;;11.18;4.80;;;;;;;8.60;89.97;93744.63;5075154;28;20036;-56
2022/01/09 10:50:45;;;;;;;9.15;4.90;;;;;;;8.78;88.64;93734.94;5069766;28;20051;-56
2022/01/09 10:53:29;;;;;;;8.82;4.25;;;;;;;8.79;87.78;93736.53;5071541;28;20055;-56
2022/01/09 10:56:08;;;;;;;12.07;6.45;;;;;;;8.77;87.42;93743.78;5071727;28;20043;-55
2022/01/09 10:58:40;;;;;;;9.70;4.68;;;;;;;8.82;86.96;93733.41;5077611;28;20046;-55
2022/01/09 11:01:15;;;;;;;6.97;3.85;;;;;;;8.74;88.53;93723.50;5078373;28;20036;-54
2022/01/09 11:03:50;;;;;;;9.88;5.35;;;;;;;8.83;88.74;93726.44;5069972;28;20534;-55
2022/01/09 11:06:19;;;;;;;12.90;5.22;;;;;;;9.00;87.69;93719.28;5072904;28;20123;-54
2022/01/09 11:08:47;;;;;;;8.00;4.43;;;;;;;9.13;87.77;93720.72;5070419;28;20036;-54
2022/01/09 11:11:23;;;;;;;7.70;4.30;;;;;;;9.31;88.22;93712.53;5071503;28;20043;-54
2022/01/09 11:13:53;;;;;;;7.53;3.63;;;;;;;9.51;85.47;93706.66;5072768;28;20060;-54
2022/01/09 11:16:41;;;;;;;7.70;3.40;;;;;;;9.71;85.68;93700.78;5074433;28;20048;-55
2022/01/09 11:19:16;;;;;;;7.68;3.65;;;;;;;9.85;84.00;93708.13;5069246;28;20040;-55
2022/01/09 11:22:00;;;;;;;9.25;4.78;;;;;;;9.90;82.57;93697.75;5074469;28;20037;-55
2022/01/09 11:24:42;;;;;;;12.48;5.90;;;;;;;10.02;81.75;93695.72;5075880;28;20426;-55
2022/01/09 11:27:22;;;;;;;11.88;6.88;;;;;;;9.97;81.15;93698.28;5071897;28;20036;-54
2022/01/09 11:30:14;;;;;;;7.97;4.35;;;;;;;10.02;81.77;93700.16;5073844;28;20068;-55
2022/01/09 11:32:47;;;;;;;11.05;6.68;;;;;;;9.86;80.99;93686.28;5066697;28;20052;-56
2022/01/09 11:35:20;;;;;;;8.07;3.88;;;;;;;9.95;81.48;93689.97;5073268;28;20045;-56
2022/01/09 11:37:49;;;;;;;9.20;4.47;;;;;;;10.29;81.14;93686.97;5075544;28;20127;-55
2022/01/09 11:40:31;;;;;;;8.52;4.63;;;;;;;10.24;80.08;93650.50;5074140;28;20067;-55